sensor_id;sensor_type;location;lat;lon;timestamp;P1;durP1;ratioP1;P2;durP2;ratioP2
55670;SDS011;41551;47.500;8.408;2022-07-23T00:00:13;7.85;;;7.05;;
55670;SDS011;41551;47.500;8.408;2022-07-23T00:02:41;10.98;;;7.03;;
55670;SDS011;41551;47.500;8.408;2022-07-23T00:05:08;9.43;;;6.60;;
55670;SDS011;41551;47.500;8.408;2022-07-23T00:07:35;9.02;;;6.55;;
55670;SDS011;41551;47.500;8.408;2022-07-23T00:10:02;8.13;;;6.60;;
55670;SDS011;41551;47.500;8.408;2022-07-23T00:12:31;12.90;;;8.40;;
55670;SDS011;41551;47.500;8.408;2022-07-23T00:14:58;10.43;;;7.13;;
55670;SDS011;41551;47.500;8.408;2022-07-23T00:17:25;9.07;;;6.65;;
55670;SDS011;41551;47.500;8.408;2022-07-23T00:19:52;9.32;;;7.40;;
55670;SDS011;41551;47.500;8.408;2022-07-23T00:22:19;11.07;;;7.57;;
55670;SDS011;41551;47.500;8.408;2022-07-23T00:24:46;8.88;;;7.70;;
55670;SDS011;41551;47.500;8.408;2022-07-23T00:27:12;7.85;;;7.03;;
55670;SDS011;41551;47.500;8.408;2022-07-23T00:29:40;13.88;;;7.85;;
55670;SDS011;41551;47.500;8.408;2022-07-23T00:32:07;8.77;;;7.00;;
55670;SDS011;41551;47.500;8.408;2022-07-23T00:34:34;8.90;;;7.50;;
55670;SDS011;41551;47.500;8.408;2022-07-23T00:37:01;10.25;;;8.18;;
55670;SDS011;41551;47.500;8.408;2022-07-23T00:39:28;8.95;;;7.28;;
55670;SDS011;41551;47.500;8.408;2022-07-23T00:41:54;11.88;;;8.68;;
55670;SDS011;41551;47.500;8.408;2022-07-23T00:44:22;11.52;;;8.48;;
55670;SDS011;41551;47.500;8.408;2022-07-23T00:46:53;10.90;;;8.02;;
55670;SDS011;41551;47.500;8.408;2022-07-23T00:49:21;8.15;;;7.20;;
55670;SDS011;41551;47.500;8.408;2022-07-23T00:51:49;8.98;;;7.35;;
55670;SDS011;41551;47.500;8.408;2022-07-23T00:54:17;10.85;;;7.70;;
55670;SDS011;41551;47.500;8.408;2022-07-23T00:56:45;11.23;;;8.00;;
55670;SDS011;41551;47.500;8.408;2022-07-23T00:59:12;8.18;;;7.38;;
55670;SDS011;41551;47.500;8.408;2022-07-23T01:01:40;9.18;;;7.68;;
55670;SDS011;41551;47.500;8.408;2022-07-23T01:04:10;9.90;;;7.65;;
55670;SDS011;41551;47.500;8.408;2022-07-23T01:06:37;9.00;;;7.90;;
55670;SDS011;41551;47.500;8.408;2022-07-23T01:09:05;8.98;;;7.82;;
55670;SDS011;41551;47.500;8.408;2022-07-23T01:11:33;11.05;;;8.70;;
55670;SDS011;41551;47.500;8.408;2022-07-23T01:14:07;10.38;;;8.63;;
55670;SDS011;41551;47.500;8.408;2022-07-23T01:16:34;11.77;;;9.15;;
55670;SDS011;41551;47.500;8.408;2022-07-23T01:19:01;10.60;;;7.95;;
55670;SDS011;41551;47.500;8.408;2022-07-23T01:21:32;13.68;;;9.63;;
55670;SDS011;41551;47.500;8.408;2022-07-23T01:24:03;10.77;;;8.73;;
55670;SDS011;41551;47.500;8.408;2022-07-23T01:26:31;11.73;;;8.73;;
55670;SDS011;41551;47.500;8.408;2022-07-23T01:28:58;11.00;;;9.35;;
55670;SDS011;41551;47.500;8.408;2022-07-23T01:31:25;9.63;;;8.00;;
55670;SDS011;41551;47.500;8.408;2022-07-23T01:33:52;10.60;;;9.00;;
55670;SDS011;41551;47.500;8.408;2022-07-23T01:36:18;10.80;;;9.07;;
55670;SDS011;41551;47.500;8.408;2022-07-23T01:38:45;10.43;;;8.15;;
55670;SDS011;41551;47.500;8.408;2022-07-23T01:41:14;9.00;;;8.10;;
55670;SDS011;41551;47.500;8.408;2022-07-23T01:43:42;10.60;;;8.57;;
55670;SDS011;41551;47.500;8.408;2022-07-23T01:46:09;10.95;;;8.85;;
55670;SDS011;41551;47.500;8.408;2022-07-23T01:48:36;11.13;;;8.82;;
55670;SDS011;41551;47.500;8.408;2022-07-23T01:51:03;12.52;;;10.00;;
55670;SDS011;41551;47.500;8.408;2022-07-23T01:53:30;9.98;;;8.60;;
55670;SDS011;41551;47.500;8.408;2022-07-23T01:55:57;11.63;;;8.55;;
55670;SDS011;41551;47.500;8.408;2022-07-23T01:58:25;10.30;;;8.75;;
55670;SDS011;41551;47.500;8.408;2022-07-23T02:00:53;11.10;;;7.97;;
55670;SDS011;41551;47.500;8.408;2022-07-23T02:03:20;10.93;;;9.00;;
55670;SDS011;41551;47.500;8.408;2022-07-23T02:05:47;11.75;;;8.90;;
55670;SDS011;41551;47.500;8.408;2022-07-23T02:08:14;9.43;;;8.07;;
55670;SDS011;41551;47.500;8.408;2022-07-23T02:10:41;9.25;;;7.18;;
55670;SDS011;41551;47.500;8.408;2022-07-23T02:13:07;9.95;;;7.65;;
55670;SDS011;41551;47.500;8.408;2022-07-23T02:15:36;10.60;;;7.47;;
55670;SDS011;41551;47.500;8.408;2022-07-23T02:18:03;12.05;;;8.15;;
55670;SDS011;41551;47.500;8.408;2022-07-23T02:20:29;11.32;;;7.95;;
55670;SDS011;41551;47.500;8.408;2022-07-23T02:22:56;9.13;;;7.30;;
55670;SDS011;41551;47.500;8.408;2022-07-23T02:25:23;8.55;;;7.68;;
55670;SDS011;41551;47.500;8.408;2022-07-23T02:27:50;8.02;;;6.85;;
55670;SDS011;41551;47.500;8.408;2022-07-23T02:30:17;10.32;;;6.65;;
55670;SDS011;41551;47.500;8.408;2022-07-23T02:32:45;7.65;;;6.68;;
55670;SDS011;41551;47.500;8.408;2022-07-23T02:35:12;7.68;;;6.32;;
55670;SDS011;41551;47.500;8.408;2022-07-23T02:37:38;10.77;;;7.30;;
55670;SDS011;41551;47.500;8.408;2022-07-23T02:40:05;8.45;;;6.93;;
55670;SDS011;41551;47.500;8.408;2022-07-23T02:42:33;8.05;;;7.05;;
55670;SDS011;41551;47.500;8.408;2022-07-23T02:45:00;9.90;;;6.97;;
55670;SDS011;41551;47.500;8.408;2022-07-23T02:47:27;8.30;;;6.78;;
55670;SDS011;41551;47.500;8.408;2022-07-23T02:49:55;8.55;;;7.45;;
55670;SDS011;41551;47.500;8.408;2022-07-23T02:52:22;9.52;;;7.18;;
55670;SDS011;41551;47.500;8.408;2022-07-23T02:54:49;9.55;;;6.55;;
55670;SDS011;41551;47.500;8.408;2022-07-23T02:57:16;9.50;;;7.63;;
55670;SDS011;41551;47.500;8.408;2022-07-23T02:59:42;8.15;;;7.10;;
55670;SDS011;41551;47.500;8.408;2022-07-23T03:02:09;9.55;;;6.97;;
55670;SDS011;41551;47.500;8.408;2022-07-23T03:04:36;12.15;;;6.75;;
55670;SDS011;41551;47.500;8.408;2022-07-23T03:07:04;8.13;;;6.75;;
55670;SDS011;41551;47.500;8.408;2022-07-23T03:09:31;10.40;;;7.25;;
55670;SDS011;41551;47.500;8.408;2022-07-23T03:11:58;9.07;;;7.05;;
55670;SDS011;41551;47.500;8.408;2022-07-23T03:14:24;8.45;;;7.03;;
55670;SDS011;41551;47.500;8.408;2022-07-23T03:16:52;8.10;;;6.45;;
55670;SDS011;41551;47.500;8.408;2022-07-23T03:19:19;9.27;;;6.63;;
55670;SDS011;41551;47.500;8.408;2022-07-23T03:21:46;8.38;;;6.72;;
55670;SDS011;41551;47.500;8.408;2022-07-23T03:24:14;9.60;;;6.95;;
55670;SDS011;41551;47.500;8.408;2022-07-23T03:26:43;8.48;;;6.78;;
55670;SDS011;41551;47.500;8.408;2022-07-23T03:29:10;7.32;;;6.55;;
55670;SDS011;41551;47.500;8.408;2022-07-23T03:31:37;7.20;;;6.47;;
55670;SDS011;41551;47.500;8.408;2022-07-23T03:34:04;9.18;;;6.68;;
55670;SDS011;41551;47.500;8.408;2022-07-23T03:36:30;8.00;;;6.80;;
55670;SDS011;41551;47.500;8.408;2022-07-23T03:38:57;8.73;;;6.82;;
55670;SDS011;41551;47.500;8.408;2022-07-23T03:41:25;8.50;;;7.15;;
55670;SDS011;41551;47.500;8.408;2022-07-23T03:43:52;13.70;;;7.20;;
55670;SDS011;41551;47.500;8.408;2022-07-23T03:46:19;7.47;;;6.68;;
55670;SDS011;41551;47.500;8.408;2022-07-23T03:48:45;8.73;;;6.43;;
55670;SDS011;41551;47.500;8.408;2022-07-23T03:51:12;8.98;;;7.05;;
55670;SDS011;41551;47.500;8.408;2022-07-23T03:53:39;8.15;;;6.65;;
55670;SDS011;41551;47.500;8.408;2022-07-23T03:56:06;7.53;;;6.60;;
55670;SDS011;41551;47.500;8.408;2022-07-23T03:58:34;9.32;;;7.07;;
55670;SDS011;41551;47.500;8.408;2022-07-23T04:01:01;8.10;;;7.07;;
55670;SDS011;41551;47.500;8.408;2022-07-23T04:03:28;9.05;;;7.13;;
55670;SDS011;41551;47.500;8.408;2022-07-23T04:05:55;9.40;;;7.28;;
55670;SDS011;41551;47.500;8.408;2022-07-23T04:08:21;8.88;;;7.20;;
55670;SDS011;41551;47.500;8.408;2022-07-23T04:10:48;8.18;;;7.20;;
55670;SDS011;41551;47.500;8.408;2022-07-23T04:13:15;8.18;;;7.18;;
55670;SDS011;41551;47.500;8.408;2022-07-23T04:15:43;11.00;;;7.32;;
55670;SDS011;41551;47.500;8.408;2022-07-23T04:18:10;8.18;;;6.97;;
55670;SDS011;41551;47.500;8.408;2022-07-23T04:20:37;8.70;;;6.97;;
55670;SDS011;41551;47.500;8.408;2022-07-23T04:23:04;8.38;;;7.47;;
55670;SDS011;41551;47.500;8.408;2022-07-23T04:25:31;9.43;;;7.90;;
55670;SDS011;41551;47.500;8.408;2022-07-23T04:27:57;8.57;;;7.32;;
55670;SDS011;41551;47.500;8.408;2022-07-23T04:30:24;8.73;;;7.10;;
55670;SDS011;41551;47.500;8.408;2022-07-23T04:32:52;9.82;;;7.60;;
55670;SDS011;41551;47.500;8.408;2022-07-23T04:35:19;8.88;;;7.38;;
55670;SDS011;41551;47.500;8.408;2022-07-23T04:37:46;12.73;;;7.53;;
55670;SDS011;41551;47.500;8.408;2022-07-23T04:40:13;9.27;;;7.55;;
55670;SDS011;41551;47.500;8.408;2022-07-23T04:42:40;10.48;;;8.40;;
55670;SDS011;41551;47.500;8.408;2022-07-23T04:45:07;10.57;;;8.07;;
55670;SDS011;41551;47.500;8.408;2022-07-23T04:47:34;10.60;;;8.20;;
55670;SDS011;41551;47.500;8.408;2022-07-23T04:50:03;14.70;;;8.45;;
55670;SDS011;41551;47.500;8.408;2022-07-23T04:52:30;9.75;;;8.75;;
55670;SDS011;41551;47.500;8.408;2022-07-23T04:54:57;14.10;;;8.32;;
55670;SDS011;41551;47.500;8.408;2022-07-23T04:57:23;10.77;;;8.73;;
55670;SDS011;41551;47.500;8.408;2022-07-23T04:59:50;9.27;;;8.25;;
55670;SDS011;41551;47.500;8.408;2022-07-23T05:02:17;13.25;;;9.65;;
55670;SDS011;41551;47.500;8.408;2022-07-23T05:04:44;12.07;;;8.80;;
55670;SDS011;41551;47.500;8.408;2022-07-23T05:07:12;11.00;;;8.38;;
55670;SDS011;41551;47.500;8.408;2022-07-23T05:09:39;11.55;;;8.35;;
55670;SDS011;41551;47.500;8.408;2022-07-23T05:12:06;10.60;;;8.23;;
55670;SDS011;41551;47.500;8.408;2022-07-23T05:14:33;9.25;;;8.00;;
55670;SDS011;41551;47.500;8.408;2022-07-23T05:17:00;10.40;;;8.05;;
55670;SDS011;41551;47.500;8.408;2022-07-23T05:19:28;10.88;;;8.27;;
55670;SDS011;41551;47.500;8.408;2022-07-23T05:21:55;10.05;;;8.02;;
55670;SDS011;41551;47.500;8.408;2022-07-23T05:24:23;10.50;;;8.05;;
55670;SDS011;41551;47.500;8.408;2022-07-23T05:26:50;11.07;;;8.57;;
55670;SDS011;41551;47.500;8.408;2022-07-23T05:29:16;9.70;;;8.70;;
55670;SDS011;41551;47.500;8.408;2022-07-23T05:31:43;9.85;;;8.00;;
55670;SDS011;41551;47.500;8.408;2022-07-23T05:34:10;10.13;;;8.65;;
55670;SDS011;41551;47.500;8.408;2022-07-23T05:36:37;11.40;;;7.80;;
55670;SDS011;41551;47.500;8.408;2022-07-23T05:39:04;11.80;;;8.23;;
55670;SDS011;41551;47.500;8.408;2022-07-23T05:41:32;11.02;;;8.07;;
55670;SDS011;41551;47.500;8.408;2022-07-23T05:43:59;10.60;;;7.72;;
55670;SDS011;41551;47.500;8.408;2022-07-23T05:46:26;9.15;;;7.63;;
55670;SDS011;41551;47.500;8.408;2022-07-23T05:48:52;8.70;;;7.65;;
55670;SDS011;41551;47.500;8.408;2022-07-23T05:51:19;9.95;;;7.85;;
55670;SDS011;41551;47.500;8.408;2022-07-23T05:53:47;10.60;;;7.63;;
55670;SDS011;41551;47.500;8.408;2022-07-23T05:56:14;9.25;;;6.88;;
55670;SDS011;41551;47.500;8.408;2022-07-23T05:58:42;10.43;;;7.93;;
55670;SDS011;41551;47.500;8.408;2022-07-23T06:01:09;13.30;;;8.75;;
55670;SDS011;41551;47.500;8.408;2022-07-23T06:03:36;10.57;;;8.02;;
55670;SDS011;41551;47.500;8.408;2022-07-23T06:06:03;10.15;;;8.43;;
55670;SDS011;41551;47.500;8.408;2022-07-23T06:08:31;9.32;;;7.25;;
55670;SDS011;41551;47.500;8.408;2022-07-23T06:10:58;10.68;;;8.20;;
55670;SDS011;41551;47.500;8.408;2022-07-23T06:13:24;11.65;;;8.13;;
55670;SDS011;41551;47.500;8.408;2022-07-23T06:15:52;12.80;;;8.32;;
55670;SDS011;41551;47.500;8.408;2022-07-23T06:18:19;9.57;;;8.50;;
55670;SDS011;41551;47.500;8.408;2022-07-23T06:20:46;9.65;;;8.20;;
55670;SDS011;41551;47.500;8.408;2022-07-23T06:23:13;10.07;;;7.90;;
55670;SDS011;41551;47.500;8.408;2022-07-23T06:25:40;11.73;;;8.35;;
55670;SDS011;41551;47.500;8.408;2022-07-23T06:28:07;8.43;;;7.50;;
55670;SDS011;41551;47.500;8.408;2022-07-23T06:30:33;12.70;;;8.60;;
55670;SDS011;41551;47.500;8.408;2022-07-23T06:33:01;10.43;;;8.43;;
55670;SDS011;41551;47.500;8.408;2022-07-23T06:35:28;10.10;;;7.20;;
55670;SDS011;41551;47.500;8.408;2022-07-23T06:37:55;11.52;;;7.70;;
55670;SDS011;41551;47.500;8.408;2022-07-23T06:40:22;12.18;;;8.10;;
55670;SDS011;41551;47.500;8.408;2022-07-23T06:42:49;11.27;;;8.05;;
55670;SDS011;41551;47.500;8.408;2022-07-23T06:45:16;11.73;;;7.15;;
55670;SDS011;41551;47.500;8.408;2022-07-23T06:47:44;8.95;;;7.43;;
55670;SDS011;41551;47.500;8.408;2022-07-23T06:50:12;8.82;;;6.38;;
55670;SDS011;41551;47.500;8.408;2022-07-23T06:52:39;10.85;;;7.13;;
55670;SDS011;41551;47.500;8.408;2022-07-23T06:55:06;9.82;;;6.88;;
55670;SDS011;41551;47.500;8.408;2022-07-23T06:57:33;8.90;;;6.95;;
55670;SDS011;41551;47.500;8.408;2022-07-23T07:00:00;8.18;;;7.18;;
55670;SDS011;41551;47.500;8.408;2022-07-23T07:02:27;10.32;;;7.57;;
55670;SDS011;41551;47.500;8.408;2022-07-23T07:04:54;10.10;;;7.57;;
55670;SDS011;41551;47.500;8.408;2022-07-23T07:07:23;10.45;;;7.43;;
55670;SDS011;41551;47.500;8.408;2022-07-23T07:09:49;10.68;;;8.05;;
55670;SDS011;41551;47.500;8.408;2022-07-23T07:12:16;9.00;;;7.88;;
55670;SDS011;41551;47.500;8.408;2022-07-23T07:14:43;8.07;;;6.78;;
55670;SDS011;41551;47.500;8.408;2022-07-23T07:17:10;11.27;;;7.57;;
55670;SDS011;41551;47.500;8.408;2022-07-23T07:19:37;8.75;;;6.78;;
55670;SDS011;41551;47.500;8.408;2022-07-23T07:22:04;8.98;;;6.50;;
55670;SDS011;41551;47.500;8.408;2022-07-23T07:24:32;9.35;;;6.43;;
55670;SDS011;41551;47.500;8.408;2022-07-23T07:26:59;8.93;;;7.07;;
55670;SDS011;41551;47.500;8.408;2022-07-23T07:29:26;8.40;;;6.68;;
55670;SDS011;41551;47.500;8.408;2022-07-23T07:31:53;9.02;;;7.13;;
55670;SDS011;41551;47.500;8.408;2022-07-23T07:34:20;10.82;;;8.00;;
55670;SDS011;41551;47.500;8.408;2022-07-23T07:36:47;11.32;;;7.53;;
55670;SDS011;41551;47.500;8.408;2022-07-23T07:39:15;9.75;;;7.20;;
55670;SDS011;41551;47.500;8.408;2022-07-23T07:41:43;10.48;;;7.63;;
55670;SDS011;41551;47.500;8.408;2022-07-23T07:44:10;8.90;;;7.47;;
55670;SDS011;41551;47.500;8.408;2022-07-23T07:46:36;8.88;;;7.28;;
55670;SDS011;41551;47.500;8.408;2022-07-23T07:49:03;9.70;;;7.30;;
55670;SDS011;41551;47.500;8.408;2022-07-23T07:51:30;8.23;;;7.22;;
55670;SDS011;41551;47.500;8.408;2022-07-23T07:53:58;8.60;;;6.97;;
55670;SDS011;41551;47.500;8.408;2022-07-23T07:56:24;11.52;;;7.40;;
55670;SDS011;41551;47.500;8.408;2022-07-23T07:58:53;13.35;;;7.68;;
55670;SDS011;41551;47.500;8.408;2022-07-23T08:01:19;8.80;;;7.90;;
55670;SDS011;41551;47.500;8.408;2022-07-23T08:03:46;9.02;;;7.47;;
55670;SDS011;41551;47.500;8.408;2022-07-23T08:06:13;8.82;;;6.93;;
55670;SDS011;41551;47.500;8.408;2022-07-23T08:08:40;8.30;;;7.50;;
55670;SDS011;41551;47.500;8.408;2022-07-23T08:11:07;10.70;;;8.05;;
55670;SDS011;41551;47.500;8.408;2022-07-23T08:13:34;10.45;;;7.45;;
55670;SDS011;41551;47.500;8.408;2022-07-23T08:16:03;8.18;;;7.38;;
55670;SDS011;41551;47.500;8.408;2022-07-23T08:18:31;9.75;;;7.80;;
55670;SDS011;41551;47.500;8.408;2022-07-23T08:20:57;8.68;;;7.25;;
55670;SDS011;41551;47.500;8.408;2022-07-23T08:23:24;10.30;;;7.00;;
55670;SDS011;41551;47.500;8.408;2022-07-23T08:25:52;9.02;;;7.20;;
55670;SDS011;41551;47.500;8.408;2022-07-23T08:28:19;9.18;;;7.72;;
55670;SDS011;41551;47.500;8.408;2022-07-23T08:30:46;9.93;;;7.80;;
55670;SDS011;41551;47.500;8.408;2022-07-23T08:33:15;8.63;;;7.18;;
55670;SDS011;41551;47.500;8.408;2022-07-23T08:35:43;9.65;;;7.10;;
55670;SDS011;41551;47.500;8.408;2022-07-23T08:38:12;9.60;;;7.95;;
55670;SDS011;41551;47.500;8.408;2022-07-23T08:40:41;9.25;;;7.55;;
55670;SDS011;41551;47.500;8.408;2022-07-23T08:43:10;8.93;;;7.70;;
55670;SDS011;41551;47.500;8.408;2022-07-23T08:45:40;9.35;;;7.55;;
55670;SDS011;41551;47.500;8.408;2022-07-23T08:48:08;9.75;;;7.95;;
55670;SDS011;41551;47.500;8.408;2022-07-23T08:50:39;9.18;;;8.02;;
55670;SDS011;41551;47.500;8.408;2022-07-23T08:53:09;10.25;;;7.60;;
55670;SDS011;41551;47.500;8.408;2022-07-23T08:55:36;10.27;;;8.15;;
55670;SDS011;41551;47.500;8.408;2022-07-23T08:58:03;9.40;;;7.32;;
55670;SDS011;41551;47.500;8.408;2022-07-23T09:00:30;10.20;;;7.40;;
55670;SDS011;41551;47.500;8.408;2022-07-23T09:02:57;9.68;;;7.90;;
55670;SDS011;41551;47.500;8.408;2022-07-23T09:05:24;8.45;;;7.55;;
55670;SDS011;41551;47.500;8.408;2022-07-23T09:08:05;9.00;;;7.60;;
55670;SDS011;41551;47.500;8.408;2022-07-23T09:10:46;9.10;;;7.28;;
55670;SDS011;41551;47.500;8.408;2022-07-23T09:13:26;8.38;;;7.50;;
55670;SDS011;41551;47.500;8.408;2022-07-23T09:15:59;9.10;;;7.97;;
55670;SDS011;41551;47.500;8.408;2022-07-23T09:18:28;8.15;;;7.35;;
55670;SDS011;41551;47.500;8.408;2022-07-23T09:23:41;7.82;;;6.93;;
55670;SDS011;41551;47.500;8.408;2022-07-23T09:26:22;8.43;;;7.50;;
55670;SDS011;41551;47.500;8.408;2022-07-23T09:28:52;8.25;;;7.35;;
55670;SDS011;41551;47.500;8.408;2022-07-23T09:31:21;10.82;;;8.13;;
55670;SDS011;41551;47.500;8.408;2022-07-23T09:33:49;8.13;;;7.25;;
55670;SDS011;41551;47.500;8.408;2022-07-23T09:36:17;8.70;;;7.45;;
55670;SDS011;41551;47.500;8.408;2022-07-23T09:38:55;8.60;;;7.70;;
55670;SDS011;41551;47.500;8.408;2022-07-23T09:41:22;7.50;;;6.80;;
55670;SDS011;41551;47.500;8.408;2022-07-23T09:43:54;7.80;;;7.00;;
55670;SDS011;41551;47.500;8.408;2022-07-23T09:46:23;9.32;;;7.45;;
55670;SDS011;41551;47.500;8.408;2022-07-23T09:48:51;8.02;;;7.30;;
55670;SDS011;41551;47.500;8.408;2022-07-23T09:51:19;9.50;;;7.72;;
55670;SDS011;41551;47.500;8.408;2022-07-23T09:53:57;10.43;;;8.13;;
55670;SDS011;41551;47.500;8.408;2022-07-23T09:56:24;9.07;;;8.13;;
55670;SDS011;41551;47.500;8.408;2022-07-23T09:58:54;9.63;;;8.32;;
55670;SDS011;41551;47.500;8.408;2022-07-23T10:01:29;9.80;;;8.07;;
55670;SDS011;41551;47.500;8.408;2022-07-23T10:03:57;8.75;;;7.78;;
55670;SDS011;41551;47.500;8.408;2022-07-23T10:06:24;9.05;;;7.85;;
55670;SDS011;41551;47.500;8.408;2022-07-23T10:08:52;8.98;;;7.70;;
55670;SDS011;41551;47.500;8.408;2022-07-23T10:11:26;13.57;;;8.15;;
55670;SDS011;41551;47.500;8.408;2022-07-23T10:13:53;7.60;;;6.90;;
55670;SDS011;41551;47.500;8.408;2022-07-23T10:16:22;9.77;;;7.70;;
55670;SDS011;41551;47.500;8.408;2022-07-23T10:18:49;9.32;;;7.88;;
55670;SDS011;41551;47.500;8.408;2022-07-23T10:21:18;10.05;;;8.15;;
55670;SDS011;41551;47.500;8.408;2022-07-23T10:23:56;13.95;;;8.30;;
55670;SDS011;41551;47.500;8.408;2022-07-23T10:26:37;9.97;;;8.33;;
55670;SDS011;41551;47.500;8.408;2022-07-23T10:29:18;9.27;;;8.40;;
55670;SDS011;41551;47.500;8.408;2022-07-23T10:31:56;8.95;;;8.05;;
55670;SDS011;41551;47.500;8.408;2022-07-23T10:34:34;10.45;;;8.48;;
55670;SDS011;41551;47.500;8.408;2022-07-23T10:37:12;10.57;;;8.52;;
55670;SDS011;41551;47.500;8.408;2022-07-23T10:39:47;10.65;;;8.43;;
55670;SDS011;41551;47.500;8.408;2022-07-23T10:42:34;9.52;;;8.63;;
55670;SDS011;41551;47.500;8.408;2022-07-23T10:45:02;8.68;;;7.78;;
55670;SDS011;41551;47.500;8.408;2022-07-23T10:47:49;10.45;;;9.23;;
55670;SDS011;41551;47.500;8.408;2022-07-23T10:50:18;10.52;;;8.48;;
55670;SDS011;41551;47.500;8.408;2022-07-23T10:55:46;9.82;;;8.82;;
55670;SDS011;41551;47.500;8.408;2022-07-23T10:58:18;10.02;;;8.38;;
55670;SDS011;41551;47.500;8.408;2022-07-23T11:00:47;9.70;;;8.68;;
55670;SDS011;41551;47.500;8.408;2022-07-23T11:03:28;11.60;;;8.57;;
55670;SDS011;41551;47.500;8.408;2022-07-23T11:06:01;9.95;;;8.93;;
55670;SDS011;41551;47.500;8.408;2022-07-23T11:08:28;9.18;;;8.27;;
55670;SDS011;41551;47.500;8.408;2022-07-23T11:11:07;12.40;;;9.40;;
55670;SDS011;41551;47.500;8.408;2022-07-23T11:13:45;10.02;;;8.50;;
55670;SDS011;41551;47.500;8.408;2022-07-23T11:16:19;10.25;;;8.90;;
55670;SDS011;41551;47.500;8.408;2022-07-23T11:21:42;10.10;;;8.95;;
55670;SDS011;41551;47.500;8.408;2022-07-23T11:24:13;9.60;;;8.50;;
55670;SDS011;41551;47.500;8.408;2022-07-23T11:26:51;10.27;;;8.98;;
55670;SDS011;41551;47.500;8.408;2022-07-23T11:29:39;11.57;;;9.35;;
55670;SDS011;41551;47.500;8.408;2022-07-23T11:32:18;11.10;;;8.63;;
55670;SDS011;41551;47.500;8.408;2022-07-23T11:35:05;9.98;;;8.98;;
55670;SDS011;41551;47.500;8.408;2022-07-23T11:37:45;10.98;;;9.07;;
55670;SDS011;41551;47.500;8.408;2022-07-23T11:40:14;11.40;;;9.63;;
55670;SDS011;41551;47.500;8.408;2022-07-23T11:42:52;10.55;;;8.85;;
55670;SDS011;41551;47.500;8.408;2022-07-23T11:45:20;12.55;;;9.35;;
55670;SDS011;41551;47.500;8.408;2022-07-23T11:47:48;10.57;;;9.02;;
55670;SDS011;41551;47.500;8.408;2022-07-23T11:50:14;11.20;;;9.38;;
55670;SDS011;41551;47.500;8.408;2022-07-23T11:52:41;10.20;;;8.63;;
55670;SDS011;41551;47.500;8.408;2022-07-23T11:55:09;10.60;;;9.27;;
55670;SDS011;41551;47.500;8.408;2022-07-23T11:57:37;10.73;;;8.43;;
55670;SDS011;41551;47.500;8.408;2022-07-23T12:00:07;10.43;;;9.32;;
55670;SDS011;41551;47.500;8.408;2022-07-23T12:02:36;10.57;;;8.00;;
55670;SDS011;41551;47.500;8.408;2022-07-23T12:05:03;11.35;;;8.20;;
55670;SDS011;41551;47.500;8.408;2022-07-23T12:07:31;10.68;;;8.50;;
55670;SDS011;41551;47.500;8.408;2022-07-23T12:10:01;9.73;;;8.73;;
55670;SDS011;41551;47.500;8.408;2022-07-23T12:12:34;10.38;;;8.68;;
55670;SDS011;41551;47.500;8.408;2022-07-23T12:15:02;8.57;;;7.72;;
55670;SDS011;41551;47.500;8.408;2022-07-23T12:17:32;11.00;;;8.48;;
55670;SDS011;41551;47.500;8.408;2022-07-23T12:20:01;10.40;;;8.75;;
55670;SDS011;41551;47.500;8.408;2022-07-23T12:22:33;9.65;;;7.55;;
55670;SDS011;41551;47.500;8.408;2022-07-23T12:25:03;9.60;;;7.78;;
55670;SDS011;41551;47.500;8.408;2022-07-23T12:27:32;10.18;;;8.70;;
55670;SDS011;41551;47.500;8.408;2022-07-23T12:29:59;9.80;;;8.40;;
55670;SDS011;41551;47.500;8.408;2022-07-23T12:32:44;9.43;;;8.18;;
55670;SDS011;41551;47.500;8.408;2022-07-23T12:35:11;10.80;;;8.57;;
55670;SDS011;41551;47.500;8.408;2022-07-23T12:37:39;9.63;;;8.68;;
55670;SDS011;41551;47.500;8.408;2022-07-23T12:40:20;10.40;;;8.32;;
55670;SDS011;41551;47.500;8.408;2022-07-23T12:42:49;9.38;;;8.30;;
55670;SDS011;41551;47.500;8.408;2022-07-23T12:45:18;10.75;;;8.25;;
55670;SDS011;41551;47.500;8.408;2022-07-23T12:50:43;10.45;;;9.23;;
55670;SDS011;41551;47.500;8.408;2022-07-23T12:53:14;9.65;;;8.65;;
55670;SDS011;41551;47.500;8.408;2022-07-23T12:55:42;9.45;;;8.23;;
55670;SDS011;41551;47.500;8.408;2022-07-23T12:58:12;9.80;;;8.45;;
55670;SDS011;41551;47.500;8.408;2022-07-23T13:00:54;8.57;;;7.70;;
55670;SDS011;41551;47.500;8.408;2022-07-23T13:03:31;9.15;;;8.20;;
55670;SDS011;41551;47.500;8.408;2022-07-23T13:06:01;12.05;;;8.95;;
55670;SDS011;41551;47.500;8.408;2022-07-23T13:08:30;10.85;;;8.43;;
55670;SDS011;41551;47.500;8.408;2022-07-23T13:10:58;9.52;;;8.45;;
55670;SDS011;41551;47.500;8.408;2022-07-23T13:13:26;11.13;;;8.77;;
55670;SDS011;41551;47.500;8.408;2022-07-23T13:15:55;10.63;;;8.50;;
55670;SDS011;41551;47.500;8.408;2022-07-23T13:18:22;8.65;;;7.70;;
55670;SDS011;41551;47.500;8.408;2022-07-23T13:20:51;9.02;;;8.13;;
55670;SDS011;41551;47.500;8.408;2022-07-23T13:23:18;9.35;;;8.48;;
55670;SDS011;41551;47.500;8.408;2022-07-23T13:25:45;10.45;;;8.32;;
55670;SDS011;41551;47.500;8.408;2022-07-23T13:28:12;9.32;;;8.35;;
55670;SDS011;41551;47.500;8.408;2022-07-23T13:30:40;11.20;;;9.00;;
55670;SDS011;41551;47.500;8.408;2022-07-23T13:33:08;11.27;;;8.98;;
55670;SDS011;41551;47.500;8.408;2022-07-23T13:35:37;10.85;;;8.63;;
55670;SDS011;41551;47.500;8.408;2022-07-23T13:38:06;8.52;;;7.80;;
55670;SDS011;41551;47.500;8.408;2022-07-23T13:40:34;10.00;;;8.27;;
55670;SDS011;41551;47.500;8.408;2022-07-23T13:43:01;8.80;;;7.90;;
55670;SDS011;41551;47.500;8.408;2022-07-23T13:45:28;9.27;;;8.38;;
55670;SDS011;41551;47.500;8.408;2022-07-23T13:47:55;8.65;;;7.75;;
55670;SDS011;41551;47.500;8.408;2022-07-23T13:50:22;9.90;;;7.90;;
55670;SDS011;41551;47.500;8.408;2022-07-23T13:52:49;10.23;;;8.40;;
55670;SDS011;41551;47.500;8.408;2022-07-23T13:55:17;8.88;;;7.97;;
55670;SDS011;41551;47.500;8.408;2022-07-23T13:57:44;8.75;;;7.85;;
55670;SDS011;41551;47.500;8.408;2022-07-23T14:00:11;10.07;;;8.18;;
55670;SDS011;41551;47.500;8.408;2022-07-23T14:02:39;9.50;;;7.43;;
55670;SDS011;41551;47.500;8.408;2022-07-23T14:05:07;10.60;;;7.82;;
55670;SDS011;41551;47.500;8.408;2022-07-23T14:07:36;13.23;;;7.97;;
55670;SDS011;41551;47.500;8.408;2022-07-23T14:10:04;8.23;;;7.35;;
55670;SDS011;41551;47.500;8.408;2022-07-23T14:12:34;8.77;;;7.50;;
55670;SDS011;41551;47.500;8.408;2022-07-23T14:15:02;10.45;;;7.70;;
55670;SDS011;41551;47.500;8.408;2022-07-23T14:17:29;8.20;;;7.40;;
55670;SDS011;41551;47.500;8.408;2022-07-23T14:19:56;9.00;;;7.35;;
55670;SDS011;41551;47.500;8.408;2022-07-23T14:22:23;7.97;;;6.90;;
55670;SDS011;41551;47.500;8.408;2022-07-23T14:24:50;7.93;;;7.13;;
55670;SDS011;41551;47.500;8.408;2022-07-23T14:27:17;7.18;;;6.47;;
55670;SDS011;41551;47.500;8.408;2022-07-23T14:29:45;8.02;;;7.22;;
55670;SDS011;41551;47.500;8.408;2022-07-23T14:32:12;10.50;;;6.47;;
55670;SDS011;41551;47.500;8.408;2022-07-23T14:34:38;8.38;;;6.93;;
55670;SDS011;41551;47.500;8.408;2022-07-23T14:37:05;8.02;;;6.72;;
55670;SDS011;41551;47.500;8.408;2022-07-23T14:39:32;7.05;;;6.45;;
55670;SDS011;41551;47.500;8.408;2022-07-23T14:41:59;7.47;;;6.78;;
55670;SDS011;41551;47.500;8.408;2022-07-23T14:44:26;7.32;;;6.55;;
55670;SDS011;41551;47.500;8.408;2022-07-23T14:46:54;7.57;;;6.82;;
55670;SDS011;41551;47.500;8.408;2022-07-23T14:49:21;8.52;;;6.72;;
55670;SDS011;41551;47.500;8.408;2022-07-23T14:51:48;8.98;;;7.07;;
55670;SDS011;41551;47.500;8.408;2022-07-23T14:54:15;9.10;;;7.30;;
55670;SDS011;41551;47.500;8.408;2022-07-23T14:56:41;8.02;;;6.63;;
55670;SDS011;41551;47.500;8.408;2022-07-23T14:59:08;7.38;;;6.68;;
55670;SDS011;41551;47.500;8.408;2022-07-23T15:01:35;9.57;;;6.85;;